createdAt,value
2023-05-08T00:02:17.252Z,5.72
2023-05-08T00:05:02.339Z,5.81
2023-05-08T00:07:47.534Z,5.68
2023-05-08T00:10:33.316Z,5.77
2023-05-08T00:13:18.559Z,5.76
2023-05-08T00:16:03.861Z,5.82
2023-05-08T00:18:49.287Z,5.60
2023-05-08T00:21:34.748Z,4.96
2023-05-08T00:24:19.961Z,5.07
2023-05-08T00:27:05.750Z,5.57
2023-05-08T00:29:50.945Z,5.60
2023-05-08T00:32:36.151Z,5.73
2023-05-08T00:35:21.501Z,5.79
2023-05-08T00:38:07.223Z,5.75
2023-05-08T00:40:52.350Z,5.82
2023-05-08T00:43:38.203Z,5.37
2023-05-08T00:46:23.522Z,5.86
2023-05-08T00:49:11.378Z,5.71
2023-05-08T00:51:57.155Z,5.60
2023-05-08T00:54:42.652Z,5.21
2023-05-08T00:57:31.714Z,4.97
2023-05-08T01:00:18.552Z,5.14
2023-05-08T01:03:04.752Z,5.24
2023-05-08T01:05:50.621Z,5.27
2023-05-08T01:08:36.447Z,5.28
2023-05-08T01:11:28.828Z,5.17
2023-05-08T01:14:39.968Z,5.13
2023-05-08T01:17:53.214Z,4.99
2023-05-08T01:21:06.059Z,5.04
2023-05-08T01:24:42.278Z,5.07
2023-05-08T01:28:21.790Z,5.19
2023-05-08T01:31:37.540Z,5.38
2023-05-08T01:34:31.174Z,5.12
2023-05-08T01:37:23.193Z,5.23
2023-05-08T01:40:17.377Z,5.28
2023-05-08T01:43:19.798Z,5.27
2023-05-08T01:46:09.527Z,5.05
2023-05-08T01:49:22.145Z,4.77
2023-05-08T01:52:35.398Z,4.94
2023-05-08T01:55:26.269Z,4.80
2023-05-08T01:58:12.575Z,5.06
2023-05-08T02:01:01.797Z,5.08
2023-05-08T02:03:48.859Z,5.10
2023-05-08T02:06:37.039Z,5.28
2023-05-08T02:09:24.469Z,5.45
2023-05-08T02:12:12.076Z,5.19
2023-05-08T02:14:58.993Z,5.36
2023-05-08T02:17:48.678Z,5.37
2023-05-08T02:20:34.433Z,5.30
2023-05-08T02:23:22.359Z,4.90
2023-05-08T02:26:09.433Z,5.01
2023-05-08T02:28:55.898Z,4.05
2023-05-08T02:31:42.181Z,5.05
2023-05-08T02:34:29.793Z,4.65
2023-05-08T02:37:17.492Z,5.13
2023-05-08T02:40:05.736Z,4.99
2023-05-08T02:42:51.395Z,5.07
2023-05-08T02:45:46.487Z,5.17
2023-05-08T02:48:44.464Z,5.02
2023-05-08T02:51:50.171Z,5.00
2023-05-08T02:54:43.728Z,4.73
2023-05-08T02:57:44.667Z,4.77
2023-05-08T03:00:42.526Z,4.60
2023-05-08T03:03:36.412Z,4.73
2023-05-08T03:06:24.102Z,4.75
2023-05-08T03:09:18.683Z,4.59
2023-05-08T03:12:09.778Z,4.75
2023-05-08T03:15:06.606Z,4.95
2023-05-08T03:17:58.473Z,4.77
2023-05-08T03:20:47.642Z,4.96
2023-05-08T03:23:35.941Z,4.97
2023-05-08T03:26:21.928Z,5.13
2023-05-08T03:29:08.648Z,4.89
2023-05-08T03:31:54.718Z,4.75
2023-05-08T03:34:40.948Z,4.53
2023-05-08T03:37:27.959Z,4.85
2023-05-08T03:40:14.038Z,4.61
2023-05-08T03:43:01.019Z,4.86
2023-05-08T03:45:47.489Z,4.95
2023-05-08T03:48:34.661Z,5.10
2023-05-08T03:51:22.074Z,5.31
2023-05-08T03:54:07.970Z,5.30
2023-05-08T03:56:54.376Z,5.20
2023-05-08T04:00:08.000Z,5.31
2023-05-08T04:03:16.964Z,5.32
2023-05-08T04:06:30.616Z,5.28
2023-05-08T04:09:31.292Z,5.19
2023-05-08T04:12:54.699Z,5.09
2023-05-08T04:15:52.771Z,4.81
2023-05-08T04:18:46.047Z,4.69
2023-05-08T04:21:35.192Z,4.54
2023-05-08T04:24:22.548Z,4.44
2023-05-08T04:27:09.891Z,4.55
2023-05-08T04:29:56.081Z,4.57
2023-05-08T04:32:43.592Z,4.68
2023-05-08T04:35:33.276Z,4.52
2023-05-08T04:38:18.690Z,4.54
2023-05-08T04:41:04.565Z,4.44
2023-05-08T04:43:50.521Z,4.43
2023-05-08T04:46:36.728Z,4.67
2023-05-08T04:49:22.066Z,4.56
2023-05-08T04:52:08.912Z,4.39
2023-05-08T04:54:54.519Z,4.44
2023-05-08T04:57:40.303Z,4.43
2023-05-08T05:00:25.997Z,4.49
2023-05-08T05:03:11.739Z,4.37
2023-05-08T05:06:01.424Z,4.49
2023-05-08T05:08:47.122Z,4.40
2023-05-08T05:11:32.285Z,4.49
2023-05-08T05:14:17.936Z,4.29
2023-05-08T05:17:03.807Z,4.27
2023-05-08T05:19:51.464Z,4.19
2023-05-08T05:22:37.175Z,4.28
2023-05-08T05:25:22.845Z,4.21
2023-05-08T05:28:08.255Z,4.39
2023-05-08T05:30:53.795Z,4.21
2023-05-08T05:33:39.050Z,4.51
2023-05-08T05:36:24.329Z,4.42
2023-05-08T05:39:09.572Z,4.43
2023-05-08T05:41:54.648Z,4.30
2023-05-08T05:44:39.905Z,4.32
2023-05-08T05:47:25.449Z,4.34
2023-05-08T05:50:11.524Z,4.57
2023-05-08T05:52:57.136Z,4.86
2023-05-08T05:55:42.440Z,4.58
2023-05-08T05:58:28.406Z,5.01
2023-05-08T06:01:14.315Z,4.72
2023-05-08T06:04:00.021Z,4.68
2023-05-08T06:06:45.679Z,4.42
2023-05-08T06:09:30.802Z,4.45
2023-05-08T06:12:16.324Z,4.35
2023-05-08T06:15:01.542Z,4.47
2023-05-08T06:17:47.007Z,4.67
2023-05-08T06:20:32.419Z,4.67
2023-05-08T06:23:18.913Z,4.76
2023-05-08T06:26:04.367Z,4.77
2023-05-08T06:28:49.760Z,4.90
2023-05-08T06:31:35.253Z,4.84
2023-05-08T06:34:20.219Z,4.82
2023-05-08T06:37:05.587Z,4.99
2023-05-08T06:40:00.265Z,4.97
2023-05-08T06:42:56.127Z,5.11
2023-05-08T06:45:43.707Z,5.13
2023-05-08T06:48:29.524Z,4.79
2023-05-08T06:51:14.821Z,5.47
2023-05-08T06:54:00.344Z,5.57
2023-05-08T06:56:45.844Z,5.29
2023-05-08T06:59:31.266Z,5.31
2023-05-08T07:02:16.775Z,5.04
2023-05-08T07:05:02.029Z,5.43
2023-05-08T07:07:47.470Z,5.51
2023-05-08T07:10:33.395Z,5.11
2023-05-08T07:13:18.548Z,5.39
2023-05-08T07:16:08.707Z,5.51
2023-05-08T07:18:54.668Z,5.40
2023-05-08T07:21:40.297Z,5.51
2023-05-08T07:24:25.714Z,5.50
2023-05-08T07:27:10.888Z,5.54
2023-05-08T07:29:56.061Z,5.73
2023-05-08T07:32:41.507Z,5.81
2023-05-08T07:35:26.840Z,5.89
2023-05-08T07:38:12.390Z,5.86
2023-05-08T07:40:58.160Z,6.01
2023-05-08T07:43:43.459Z,6.36
2023-05-08T07:46:29.079Z,6.05
2023-05-08T07:49:14.143Z,5.94
2023-05-08T07:51:59.489Z,6.68
2023-05-08T07:54:44.883Z,6.94
2023-05-08T07:57:39.785Z,7.01
2023-05-08T08:00:25.855Z,7.13
2023-05-08T08:03:11.349Z,7.50
2023-05-08T08:05:56.804Z,7.54
2023-05-08T08:08:41.910Z,7.58
2023-05-08T08:11:27.304Z,7.64
2023-05-08T08:14:12.745Z,7.90
2023-05-08T08:16:58.040Z,8.13
2023-05-08T08:19:43.411Z,8.37
2023-05-08T08:22:29.058Z,8.49
2023-05-08T08:25:15.062Z,8.62
2023-05-08T08:28:00.464Z,8.89
2023-05-08T08:30:45.708Z,9.35
2023-05-08T08:33:30.998Z,9.41
2023-05-08T08:36:16.302Z,9.65
2023-05-08T08:39:01.421Z,9.78
2023-05-08T08:41:46.741Z,9.69
2023-05-08T08:44:32.362Z,9.70
2023-05-08T08:47:19.462Z,9.61
2023-05-08T08:50:05.488Z,10.11
2023-05-08T08:53:01.250Z,10.35
2023-05-08T08:55:50.319Z,10.42
2023-05-08T08:58:44.745Z,10.47
2023-05-08T09:01:33.868Z,10.28
2023-05-08T09:04:19.139Z,10.60
2023-05-08T09:07:05.273Z,10.94
2023-05-08T09:09:50.851Z,11.11
2023-05-08T09:12:36.010Z,11.10
2023-05-08T09:15:21.592Z,11.12
2023-05-08T09:18:07.112Z,11.37
2023-05-08T09:20:53.023Z,11.60
2023-05-08T09:24:00.148Z,11.76
2023-05-08T09:26:45.305Z,11.73
2023-05-08T09:29:30.812Z,11.81
2023-05-08T09:32:18.634Z,12.03
2023-05-08T09:35:04.989Z,12.10
2023-05-08T09:37:50.396Z,12.28
2023-05-08T09:40:35.711Z,12.20
2023-05-08T09:43:20.679Z,11.87
2023-05-08T09:46:23.043Z,11.88
2023-05-08T09:49:17.345Z,12.10
2023-05-08T09:52:03.184Z,12.29
2023-05-08T09:54:56.112Z,12.36
2023-05-08T09:57:59.005Z,12.40
2023-05-08T10:00:44.515Z,12.62
2023-05-08T10:03:49.646Z,12.84
2023-05-08T10:06:34.686Z,12.86
2023-05-08T10:09:19.990Z,13.15
2023-05-08T10:12:06.036Z,12.96
2023-05-08T10:14:51.538Z,13.43
2023-05-08T10:18:02.440Z,13.43
2023-05-08T10:20:48.751Z,13.45
2023-05-08T10:23:37.737Z,13.82
2023-05-08T10:26:30.541Z,14.24
2023-05-08T10:29:25.081Z,14.37
2023-05-08T10:32:12.156Z,14.56
2023-05-08T10:35:00.356Z,14.82
2023-05-08T10:37:46.299Z,14.89
2023-05-08T10:40:31.802Z,15.32
2023-05-08T10:43:18.552Z,15.40
2023-05-08T10:46:11.773Z,15.34
2023-05-08T10:49:12.252Z,15.35
2023-05-08T10:52:27.739Z,15.51
2023-05-08T10:55:28.325Z,15.17
2023-05-08T10:58:28.272Z,15.09
2023-05-08T11:01:14.759Z,14.79
2023-05-08T11:04:00.379Z,14.47
2023-05-08T11:06:47.607Z,14.24
2023-05-08T11:09:42.074Z,14.35
2023-05-08T11:12:29.305Z,14.24
2023-05-08T11:15:14.582Z,14.49
2023-05-08T11:18:04.380Z,14.51
2023-05-08T11:21:03.645Z,14.56
2023-05-08T11:23:57.295Z,14.84
2023-05-08T11:26:48.276Z,14.96
2023-05-08T11:29:33.588Z,14.88
2023-05-08T11:32:19.160Z,14.98
2023-05-08T11:35:04.949Z,15.25
2023-05-08T11:38:19.292Z,15.45
2023-05-08T11:41:23.653Z,15.21
2023-05-08T11:44:09.027Z,14.68
2023-05-08T11:46:55.948Z,14.80
2023-05-08T11:49:42.241Z,14.78
2023-05-08T11:52:28.720Z,14.59
2023-05-08T11:55:14.171Z,15.01
2023-05-08T11:57:59.451Z,14.92
2023-05-08T12:00:46.069Z,14.93
2023-05-08T12:03:31.232Z,15.30
2023-05-08T12:06:18.796Z,14.92
2023-05-08T12:09:11.318Z,14.87
2023-05-08T12:11:57.571Z,14.67
2023-05-08T12:14:42.811Z,15.00
2023-05-08T12:17:28.046Z,14.66
2023-05-08T12:20:18.727Z,14.20
2023-05-08T12:23:04.666Z,14.18
2023-05-08T12:25:53.781Z,14.50
2023-05-08T12:28:40.404Z,14.56
2023-05-08T12:31:26.013Z,14.55
2023-05-08T12:34:12.413Z,14.49
2023-05-08T12:37:04.699Z,14.00
2023-05-08T12:39:50.038Z,14.44
2023-05-08T12:43:03.509Z,14.59
2023-05-08T12:45:51.078Z,14.50
2023-05-08T12:48:36.599Z,14.44
2023-05-08T12:51:30.264Z,14.53
2023-05-08T12:54:15.883Z,14.36
2023-05-08T12:57:10.467Z,14.82
2023-05-08T13:00:05.161Z,14.81
2023-05-08T13:02:54.803Z,13.67
2023-05-08T13:05:45.066Z,14.44
2023-05-08T13:08:35.664Z,14.64
2023-05-08T13:11:33.603Z,14.71
2023-05-08T13:14:18.863Z,14.57
2023-05-08T13:17:04.140Z,14.46
2023-05-08T13:19:49.387Z,14.57
2023-05-08T13:22:34.829Z,14.67
2023-05-08T13:25:20.115Z,14.78
2023-05-08T13:28:06.452Z,14.91
2023-05-08T13:30:52.024Z,15.20
2023-05-08T13:33:37.339Z,15.06
2023-05-08T13:36:23.275Z,14.82
2023-05-08T13:39:08.436Z,14.65
2023-05-08T13:41:53.607Z,14.67
2023-05-08T13:44:38.778Z,14.59
2023-05-08T13:47:24.373Z,14.80
2023-05-08T13:50:11.144Z,14.86
2023-05-08T13:52:56.443Z,14.81
2023-05-08T13:55:41.721Z,14.97
2023-05-08T13:58:26.883Z,15.18
2023-05-08T14:01:25.881Z,15.04
2023-05-08T14:04:12.694Z,14.99
2023-05-08T14:06:58.516Z,15.10
2023-05-08T14:09:43.515Z,15.00
2023-05-08T14:12:29.080Z,14.86
2023-05-08T14:15:14.646Z,14.96
2023-05-08T14:18:00.336Z,15.12
2023-05-08T14:20:48.987Z,15.50
2023-05-08T14:23:37.024Z,15.38
2023-05-08T14:26:22.085Z,15.07
2023-05-08T14:29:07.682Z,15.27
2023-05-08T14:31:52.923Z,15.22
2023-05-08T14:34:38.240Z,15.34
2023-05-08T14:37:23.449Z,15.21
2023-05-08T14:40:09.406Z,15.43
2023-05-08T14:42:54.761Z,15.39
2023-05-08T14:45:39.904Z,15.33
2023-05-08T14:48:25.167Z,15.34
2023-05-08T14:51:10.736Z,15.13
2023-05-08T14:53:56.962Z,14.95
2023-05-08T14:56:47.274Z,15.12
2023-05-08T14:59:33.194Z,15.41
2023-05-08T15:02:18.405Z,15.38
2023-05-08T15:05:08.364Z,15.14
2023-05-08T15:07:56.527Z,15.29
2023-05-08T15:10:42.144Z,15.24
2023-05-08T15:13:28.032Z,14.97
2023-05-08T15:16:13.726Z,15.02
2023-05-08T15:18:59.353Z,14.99
2023-05-08T15:21:44.898Z,14.98
2023-05-08T15:24:30.048Z,14.98
2023-05-08T15:27:15.411Z,14.93
2023-05-08T15:30:00.875Z,14.93
2023-05-08T15:32:46.294Z,14.87
2023-05-08T15:35:32.053Z,15.42
2023-05-08T15:38:17.442Z,15.65
2023-05-08T15:41:02.600Z,15.48
2023-05-08T15:43:47.788Z,15.26
2023-05-08T15:46:33.725Z,15.16
2023-05-08T15:49:19.286Z,15.07
2023-05-08T15:52:04.709Z,15.29
2023-05-08T15:54:50.235Z,15.24
2023-05-08T15:57:35.630Z,14.72
2023-05-08T16:00:23.019Z,15.02
2023-05-08T16:03:10.487Z,14.80
2023-05-08T16:05:55.910Z,14.84
2023-05-08T16:08:42.016Z,14.73
2023-05-08T16:11:33.583Z,14.71
2023-05-08T16:14:19.010Z,14.63
2023-05-08T16:17:04.519Z,14.59
2023-05-08T16:19:49.663Z,14.74
2023-05-08T16:22:35.036Z,14.76
2023-05-08T16:25:20.685Z,14.53
2023-05-08T16:28:06.332Z,14.45
2023-05-08T16:30:51.814Z,14.24
2023-05-08T16:33:38.808Z,14.38
2023-05-08T16:36:24.351Z,14.35
2023-05-08T16:39:09.682Z,14.47
2023-05-08T16:41:55.368Z,14.65
2023-05-08T16:44:40.577Z,14.94
2023-05-08T16:47:25.936Z,14.81
2023-05-08T16:50:11.733Z,14.72
2023-05-08T16:52:57.024Z,14.90
2023-05-08T16:55:42.401Z,15.00
2023-05-08T16:58:29.664Z,14.64
2023-05-08T17:01:16.747Z,14.89
2023-05-08T17:04:01.986Z,14.89
2023-05-08T17:14:21.661Z,12.45
2023-05-08T17:17:07.501Z,7.65
2023-05-08T17:19:53.177Z,12.18
2023-05-08T17:22:43.925Z,11.46
2023-05-08T17:25:29.911Z,13.17
2023-05-08T17:28:15.426Z,14.43
2023-05-08T17:31:00.918Z,14.37
2023-05-08T17:33:46.084Z,14.45
2023-05-08T17:36:31.542Z,14.69
2023-05-08T17:39:17.302Z,14.98
2023-05-08T17:42:05.702Z,14.65
2023-05-08T17:44:52.971Z,13.64
2023-05-08T17:47:38.980Z,15.20
2023-05-08T17:50:25.053Z,14.55
2023-05-08T17:53:11.038Z,14.97
2023-05-08T17:55:56.700Z,14.89
2023-05-08T17:58:42.577Z,11.23
2023-05-08T18:01:28.130Z,13.08
2023-05-08T18:04:13.912Z,14.14
2023-05-08T18:06:58.955Z,14.48
2023-05-08T18:09:44.244Z,13.57
2023-05-08T18:12:31.650Z,14.12
2023-05-08T18:15:17.272Z,14.20
2023-05-08T18:18:03.081Z,13.38
2023-05-08T18:20:48.798Z,13.76
2023-05-08T18:23:34.197Z,14.19
2023-05-08T18:26:21.431Z,13.27
2023-05-08T18:29:07.378Z,14.09
2023-05-08T18:31:53.108Z,13.39
2023-05-08T18:34:38.231Z,13.71
2023-05-08T18:37:23.959Z,12.86
2023-05-08T18:40:11.209Z,13.29
2023-05-08T18:42:56.818Z,12.50
2023-05-08T18:45:42.435Z,13.85
2023-05-08T18:48:29.015Z,12.98
2023-05-08T18:51:14.374Z,13.96
2023-05-08T18:53:59.974Z,12.49
2023-05-08T18:56:45.524Z,13.45
2023-05-08T18:59:31.104Z,12.52
2023-05-08T19:02:16.759Z,13.05
2023-05-08T19:05:02.302Z,12.91
2023-05-08T19:07:47.656Z,13.38
2023-05-08T19:10:33.694Z,13.65
2023-05-08T19:13:19.422Z,12.67
2023-05-08T19:16:05.342Z,13.59
2023-05-08T19:18:50.632Z,12.85
2023-05-08T19:21:36.446Z,13.35
2023-05-08T19:24:21.769Z,12.87
2023-05-08T19:27:07.603Z,12.42
2023-05-08T19:29:52.933Z,12.37
2023-05-08T19:32:38.574Z,13.06
2023-05-08T19:35:23.847Z,12.63
2023-05-08T19:38:09.137Z,11.41
2023-05-08T19:40:57.304Z,11.64
2023-05-08T19:43:42.847Z,12.42
2023-05-08T19:46:28.200Z,12.26
2023-05-08T19:49:13.448Z,11.37
2023-05-08T19:51:59.085Z,12.52
2023-05-08T19:54:44.589Z,10.79
2023-05-08T19:57:29.781Z,11.85
2023-05-08T20:00:15.625Z,12.21
2023-05-08T20:03:01.028Z,12.07
2023-05-08T20:05:46.636Z,12.35
2023-05-08T20:08:32.268Z,12.38
2023-05-08T20:11:17.822Z,11.68
2023-05-08T20:14:02.991Z,11.40
2023-05-08T20:16:48.652Z,10.58
2023-05-08T20:19:33.678Z,10.58
2023-05-08T20:22:19.111Z,10.98
2023-05-08T20:25:05.116Z,10.50
2023-05-08T20:27:50.516Z,10.58
2023-05-08T20:30:35.972Z,11.95
2023-05-08T20:33:21.393Z,12.02
2023-05-08T20:36:06.833Z,11.81
2023-05-08T20:38:52.710Z,10.59
2023-05-08T20:41:39.051Z,11.77
2023-05-08T20:44:24.649Z,11.01
2023-05-08T20:47:10.289Z,9.40
2023-05-08T20:49:55.904Z,10.65
2023-05-08T20:52:42.570Z,11.20
2023-05-08T20:55:28.258Z,11.35
2023-05-08T20:58:13.436Z,10.83
2023-05-08T21:00:58.869Z,10.95
2023-05-08T21:03:43.971Z,9.07
2023-05-08T21:06:29.364Z,11.26
2023-05-08T21:09:14.574Z,11.24
2023-05-08T21:11:59.831Z,10.68
2023-05-08T21:14:44.946Z,11.01
2023-05-08T21:17:30.632Z,11.17
2023-05-08T21:20:16.479Z,9.35
2023-05-08T21:23:02.262Z,10.70
2023-05-08T21:25:48.642Z,10.71
2023-05-08T21:28:33.949Z,10.83
2023-05-08T21:31:19.675Z,10.27
2023-05-08T21:34:05.279Z,9.76
2023-05-08T21:36:50.943Z,10.29
2023-05-08T21:39:37.406Z,9.31
2023-05-08T21:42:22.742Z,10.48
2023-05-08T21:45:08.427Z,10.67
2023-05-08T21:47:53.688Z,10.45
2023-05-08T21:50:39.042Z,8.52
2023-05-08T21:53:24.282Z,10.46
2023-05-08T21:56:09.576Z,9.58
2023-05-08T21:58:55.001Z,10.49
2023-05-08T22:01:40.463Z,10.49
2023-05-08T22:04:25.790Z,10.68
2023-05-08T22:07:11.263Z,9.63
2023-05-08T22:09:56.016Z,9.24
2023-05-08T22:12:41.644Z,10.06
2023-05-08T22:15:30.750Z,10.70
2023-05-08T22:18:16.263Z,9.84
2023-05-08T22:21:01.570Z,10.12
2023-05-08T22:23:46.840Z,10.34
2023-05-08T22:26:32.333Z,9.48
2023-05-08T22:29:17.745Z,9.56
2023-05-08T22:32:03.055Z,10.54
2023-05-08T22:34:48.683Z,9.87
2023-05-08T22:37:34.054Z,9.38
2023-05-08T22:40:20.647Z,10.76
2023-05-08T22:43:06.286Z,9.30
2023-05-08T22:45:51.907Z,9.97
2023-05-08T22:48:37.304Z,9.42
2023-05-08T22:51:22.882Z,9.84
2023-05-08T22:54:08.237Z,10.65
2023-05-08T22:56:53.580Z,10.49
2023-05-08T22:59:38.710Z,5.51
2023-05-08T23:02:24.399Z,10.41
2023-05-08T23:05:09.676Z,9.33
2023-05-08T23:07:54.881Z,9.59
2023-05-08T23:10:40.130Z,8.10
2023-05-08T23:13:25.883Z,9.00
2023-05-08T23:16:11.241Z,9.36
2023-05-08T23:18:56.806Z,8.30
2023-05-08T23:21:42.036Z,9.01
2023-05-08T23:24:27.247Z,8.84
2023-05-08T23:27:12.453Z,8.18
2023-05-08T23:29:57.685Z,9.36
2023-05-08T23:32:44.140Z,9.13
2023-05-08T23:35:29.401Z,8.42
2023-05-08T23:38:14.690Z,8.38
2023-05-08T23:41:00.626Z,8.77
2023-05-08T23:43:46.264Z,9.69
2023-05-08T23:46:31.851Z,8.39
2023-05-08T23:49:17.206Z,7.40
2023-05-08T23:52:02.649Z,8.22
2023-05-08T23:54:49.018Z,8.88
2023-05-08T23:57:34.784Z,9.22
